Time;durP1;ratioP1;P1;durP2;ratioP2;P2;SDS_P1;SDS_P2;PMS_P1;PMS_P2;Temp;Humidity;BMP_temperature;BMP_pressure;BME280_temperature;BME280_humidity;BME280_pressure;Samples;Min_cycle;Max_cycle;Signal;HPM_P1;HPM_P2
2021/06/02 00:00:43;;;;;;;9.80;7.50;;;15.30;99.90;;;;;;5110766;28;20051;-76
2021/06/02 00:03:12;;;;;;;10.00;7.45;;;15.30;99.90;;;;;;5111702;28;20023;-76
2021/06/02 00:05:40;;;;;;;10.48;7.72;;;15.20;99.90;;;;;;5111111;28;20070;-76
2021/06/02 00:08:09;;;;;;;10.27;8.15;;;15.10;99.90;;;;;;5111311;28;20020;-75
2021/06/02 00:10:34;;;;;;;9.85;7.20;;;15.00;99.90;;;;;;5111484;28;20457;-75
2021/06/02 00:13:01;;;;;;;10.95;7.65;;;14.90;99.90;;;;;;5111515;28;20041;-76
2021/06/02 00:15:27;;;;;;;13.95;8.88;;;14.90;99.90;;;;;;5111404;28;20016;-76
2021/06/02 00:17:53;;;;;;;14.55;8.20;;;14.90;99.90;;;;;;5092944;28;20516;-76
2021/06/02 00:20:19;;;;;;;11.55;7.35;;;14.80;99.90;;;;;;5111115;28;20024;-75
2021/06/02 00:22:46;;;;;;;9.90;7.43;;;14.80;99.90;;;;;;5111327;28;20020;-75
2021/06/02 00:25:12;;;;;;;11.88;7.95;;;14.70;99.90;;;;;;5111293;28;20024;-76
2021/06/02 00:27:40;;;;;;;12.18;8.27;;;14.70;99.90;;;;;;5110967;28;20354;-76
2021/06/02 00:30:09;;;;;;;11.73;8.15;;;14.70;99.90;;;;;;5111143;28;20023;-76
2021/06/02 00:32:36;;;;;;;14.27;8.25;;;14.70;99.90;;;;;;5111100;28;20016;-75
2021/06/02 00:35:03;;;;;;;11.13;8.00;;;14.70;99.90;;;;;;5111103;28;20489;-75
2021/06/02 00:37:29;;;;;;;13.93;7.80;;;14.70;99.90;;;;;;5110789;28;20103;-75
2021/06/02 00:39:56;;;;;;;11.55;7.38;;;14.70;99.90;;;;;;5110035;28;20032;-76
2021/06/02 00:42:25;;;;;;;11.65;7.75;;;14.70;99.90;;;;;;5109421;28;20028;-75
2021/06/02 00:44:51;;;;;;;10.25;7.50;;;14.70;99.90;;;;;;5110388;28;20115;-76
2021/06/02 00:47:18;;;;;;;12.23;7.95;;;14.70;99.90;;;;;;5109494;28;20051;-76
2021/06/02 00:49:45;;;;;;;12.52;8.63;;;14.70;99.90;;;;;;5110283;28;20515;-76
2021/06/02 00:52:11;;;;;;;11.27;8.25;;;14.60;99.90;;;;;;5110825;28;20027;-76
2021/06/02 00:54:38;;;;;;;10.40;8.23;;;14.60;99.90;;;;;;5110750;28;20020;-76
2021/06/02 01:00:06;;;;;;;13.60;8.60;;;14.60;99.90;;;;;;5071626;28;20358;-74
2021/06/02 01:02:34;;;;;;;10.68;8.57;;;14.60;99.90;;;;;;5071385;28;20090;-76
2021/06/02 01:04:59;;;;;;;12.35;8.75;;;14.60;99.90;;;;;;5071304;28;20442;-76
2021/06/02 01:07:26;;;;;;;9.73;8.23;;;14.60;99.90;;;;;;5070913;28;20108;-75
2021/06/02 01:09:56;;;;;;;16.08;9.05;;;14.70;99.90;;;;;;5071220;28;20024;-76
2021/06/02 01:12:25;;;;;;;15.07;8.75;;;14.90;99.90;;;;;;5070630;28;20393;-76
2021/06/02 01:14:52;;;;;;;11.38;8.63;;;15.20;99.90;;;;;;5071090;28;20041;-76
2021/06/02 01:17:20;;;;;;;12.07;8.55;;;15.40;99.90;;;;;;5071022;28;20070;-76
2021/06/02 01:19:47;;;;;;;12.65;7.68;;;15.40;99.90;;;;;;5070910;28;20017;-76
2021/06/02 01:22:13;;;;;;;13.90;8.52;;;15.50;99.90;;;;;;5070950;28;20059;-76
2021/06/02 01:24:39;;;;;;;15.45;8.95;;;15.40;99.90;;;;;;5070621;28;20129;-76
2021/06/02 01:27:08;;;;;;;13.60;8.57;;;15.50;99.90;;;;;;5070867;28;20461;-76
2021/06/02 01:29:35;;;;;;;14.98;8.70;;;15.50;99.90;;;;;;5070263;28;20036;-76
2021/06/02 01:32:40;;;;;;;13.85;9.00;;;15.60;99.90;;;;;;5070797;28;20359;-76
2021/06/02 01:35:36;;;;;;;14.60;8.73;;;15.60;99.90;;;;;;5070009;28;20056;-76
2021/06/02 01:38:28;;;;;;;11.60;8.85;;;15.70;99.90;;;;;;5070039;28;20024;-76
2021/06/02 01:41:19;;;;;;;12.00;8.57;;;15.60;99.90;;;;;;5070511;28;20374;-76
2021/06/02 01:44:24;;;;;;;13.93;8.88;;;15.60;99.90;;;;;;5069879;28;20028;-76
2021/06/02 01:47:21;;;;;;;12.10;8.55;;;15.50;99.90;;;;;;5069783;28;20460;-76
2021/06/02 01:50:00;;;;;;;19.75;10.57;;;15.40;99.90;;;;;;5070034;28;20032;-76
2021/06/02 01:53:00;;;;;;;20.00;11.43;;;15.30;99.90;;;;;;5070348;28;20020;-75
2021/06/02 01:56:05;;;;;;;15.88;10.27;;;15.30;99.90;;;;;;5069726;28;20020;-76
2021/06/02 01:59:05;;;;;;;16.58;9.85;;;15.30;99.90;;;;;;5069389;28;20037;-76
2021/06/02 02:02:11;;;;;;;13.50;9.50;;;15.30;99.90;;;;;;5068151;28;20389;-76
2021/06/02 02:05:02;;;;;;;13.55;9.63;;;15.20;99.90;;;;;;5069413;28;20017;-76
2021/06/02 02:07:57;;;;;;;15.48;9.35;;;15.10;99.90;;;;;;5069960;28;20027;-76
2021/06/02 02:10:39;;;;;;;17.15;9.95;;;15.00;99.90;;;;;;5059603;28;20033;-76
2021/06/02 02:13:44;;;;;;;17.45;10.38;;;15.00;99.90;;;;;;5056139;28;20017;-76
2021/06/02 02:16:34;;;;;;;15.35;9.93;;;14.90;99.90;;;;;;5056561;28;20454;-76
2021/06/02 02:19:28;;;;;;;13.40;9.23;;;14.80;99.90;;;;;;5056530;28;20039;-75
2021/06/02 02:22:02;;;;;;;15.15;9.18;;;14.70;99.90;;;;;;5055906;28;20021;-75
2021/06/02 02:24:50;;;;;;;14.45;9.05;;;14.60;99.90;;;;;;5056200;28;20024;-75
2021/06/02 02:27:31;;;;;;;15.85;9.93;;;14.50;99.90;;;;;;5055890;28;20382;-75
2021/06/02 02:30:02;;;;;;;14.48;10.07;;;14.40;99.90;;;;;;5056421;28;20108;-76
2021/06/02 02:32:58;;;;;;;15.02;9.98;;;14.30;99.90;;;;;;5056368;28;20013;-75
2021/06/02 02:36:04;;;;;;;14.55;10.43;;;14.10;99.90;;;;;;5055642;28;20029;-75
2021/06/02 02:38:54;;;;;;;18.40;10.57;;;14.00;99.90;;;;;;5055656;28;20061;-75
2021/06/02 02:41:45;;;;;;;18.23;10.65;;;13.90;99.90;;;;;;5055944;28;20017;-75
2021/06/02 02:44:51;;;;;;;17.27;10.45;;;13.80;99.90;;;;;;5055725;28;20386;-75
2021/06/02 02:47:27;;;;;;;16.88;10.57;;;13.70;99.90;;;;;;5055442;28;20021;-76
2021/06/02 02:50:16;;;;;;;15.98;10.60;;;13.60;99.90;;;;;;5055775;28;20049;-75
2021/06/02 02:53:10;;;;;;;16.67;11.35;;;13.50;99.90;;;;;;5055390;28;20029;-75
2021/06/02 02:55:37;;;;;;;20.70;12.15;;;13.50;99.90;;;;;;5055344;28;20071;-75
2021/06/02 02:58:42;;;;;;;17.27;10.82;;;13.40;99.90;;;;;;5054341;28;20043;-75
2021/06/02 03:01:22;;;;;;;16.88;11.02;;;13.20;99.90;;;;;;5055183;28;20083;-75
2021/06/02 03:04:03;;;;;;;16.83;11.20;;;13.20;99.90;;;;;;5055495;28;20421;-75
2021/06/02 03:06:35;;;;;;;18.02;11.27;;;13.10;99.90;;;;;;5055738;28;20021;-75
2021/06/02 03:09:24;;;;;;;16.30;11.35;;;13.10;99.90;;;;;;5055114;28;20025;-75
2021/06/02 03:12:13;;;;;;;15.98;11.45;;;13.10;99.90;;;;;;5055063;28;20035;-75
2021/06/02 03:15:02;;;;;;;18.40;10.88;;;13.00;99.90;;;;;;5054887;28;20091;-75
2021/06/02 03:17:51;;;;;;;16.88;11.60;;;12.90;99.90;;;;;;5055401;28;20504;-75
2021/06/02 03:20:24;;;;;;;17.92;11.77;;;12.80;99.90;;;;;;5054836;28;20076;-75
2021/06/02 03:23:13;;;;;;;16.52;12.07;;;12.90;99.90;;;;;;5054185;28;20021;-75
2021/06/02 03:26:08;;;;;;;18.60;12.35;;;12.90;99.90;;;;;;5055351;28;20052;-75
2021/06/02 03:29:04;;;;;;;17.92;12.02;;;13.00;99.90;;;;;;5054604;28;20036;-75
2021/06/02 03:31:58;;;;;;;19.35;12.32;;;13.00;99.90;;;;;;5055220;28;20032;-75
2021/06/02 03:34:48;;;;;;;18.85;11.85;;;13.00;99.90;;;;;;5054631;28;20390;-75
2021/06/02 03:37:39;;;;;;;19.90;12.57;;;13.10;99.90;;;;;;5054512;28;20032;-75
2021/06/02 03:40:44;;;;;;;19.23;11.98;;;13.10;99.90;;;;;;5054694;28;20094;-75
2021/06/02 03:43:25;;;;;;;19.50;13.27;;;13.20;99.90;;;;;;5055019;28;20132;-75
2021/06/02 03:46:30;;;;;;;16.33;11.05;;;13.30;99.90;;;;;;5054971;28;20020;-75
2021/06/02 03:49:14;;;;;;;17.50;12.30;;;13.40;99.90;;;;;;5054232;28;20017;-75
2021/06/02 03:51:49;;;;;;;;;;;13.40;99.90;;;;;;5055323;28;20017;-75
2021/06/02 03:54:34;;;;;;;19.20;12.65;;;13.30;99.90;;;;;;5054813;28;19912;-75
2021/06/02 03:57:21;;;;;;;19.38;12.10;;;13.40;99.90;;;;;;5052931;28;20120;-75
2021/06/02 04:00:16;;;;;;;19.67;11.98;;;13.50;99.90;;;;;;5052702;28;20095;-75
2021/06/02 04:03:05;;;;;;;18.60;11.82;;;13.60;99.90;;;;;;5054070;28;20113;-75
2021/06/02 04:05:54;;;;;;;18.73;12.15;;;13.50;99.90;;;;;;5052667;28;20024;-75
2021/06/02 04:08:42;;;;;;;15.82;10.73;;;13.50;99.90;;;;;;5053954;28;20090;-75
2021/06/02 04:11:33;;;;;;;18.65;11.88;;;13.70;99.90;;;;;;5054480;28;20133;-75
2021/06/02 04:14:02;;;;;;;17.60;11.82;;;13.80;99.90;;;;;;5053782;28;20025;-75
2021/06/02 04:16:33;;;;;;;18.35;12.18;;;13.90;99.90;;;;;;5054378;28;20094;-75
2021/06/02 04:19:10;;;;;;;18.85;12.65;;;13.90;99.90;;;;;;5052585;28;20049;-75
2021/06/02 04:21:39;;;;;;;16.15;11.90;;;13.80;99.90;;;;;;5054084;28;20463;-75
2021/06/02 04:24:11;;;;;;;19.85;12.30;;;13.90;99.90;;;;;;5054305;28;20435;-75
2021/06/02 04:26:37;;;;;;;17.38;12.25;;;14.10;99.90;;;;;;5054222;28;20045;-75
2021/06/02 04:29:08;;;;;;;21.85;12.02;;;14.20;99.90;;;;;;5054231;28;20489;-75
2021/06/02 04:31:35;;;;;;;19.88;12.57;;;14.40;99.90;;;;;;5053660;28;20402;-75
2021/06/02 04:34:01;;;;;;;20.17;12.52;;;14.60;99.90;;;;;;5053660;28;20419;-75
2021/06/02 04:36:28;;;;;;;22.02;12.20;;;14.70;99.90;;;;;;5054100;28;20063;-75
2021/06/02 04:38:56;;;;;;;19.08;11.75;;;14.70;99.90;;;;;;5054063;28;20371;-75
2021/06/02 04:41:24;;;;;;;23.77;12.52;;;15.00;99.90;;;;;;5054043;28;20028;-75
2021/06/02 04:43:51;;;;;;;17.55;12.23;;;15.20;99.90;;;;;;5053693;28;20025;-75
2021/06/02 04:46:19;;;;;;;16.75;10.95;;;15.30;99.90;;;;;;5053421;28;20096;-75
2021/06/02 04:48:45;;;;;;;20.92;12.50;;;15.30;99.90;;;;;;5053671;28;20027;-75
2021/06/02 04:51:40;;;;;;;17.98;11.77;;;15.20;99.90;;;;;;5053920;28;20020;-75
2021/06/02 04:54:45;;;;;;;17.92;11.90;;;15.20;99.90;;;;;;5052786;28;20128;-74
2021/06/02 04:57:50;;;;;;;18.25;11.65;;;15.30;99.90;;;;;;5053269;28;20025;-76
2021/06/02 05:00:43;;;;;;;18.08;11.02;;;15.30;99.90;;;;;;5053282;28;20048;-75
2021/06/02 05:03:37;;;;;;;20.48;11.85;;;15.40;99.90;;;;;;5053364;28;20033;-75
2021/06/02 05:06:42;;;;;;;17.90;11.70;;;15.20;99.90;;;;;;5053143;28;20161;-75
2021/06/02 05:09:37;;;;;;;18.55;11.05;;;15.00;99.90;;;;;;5053115;28;20021;-75
2021/06/02 05:12:39;;;;;;;16.08;10.77;;;15.00;99.90;;;;;;5053754;28;20078;-75
2021/06/02 05:15:44;;;;;;;13.68;10.95;;;15.00;99.90;;;;;;5053087;28;20037;-76
2021/06/02 05:18:52;;;;;;;15.15;11.35;;;15.00;99.90;;;;;;5053025;28;20468;-75
2021/06/02 05:22:05;;;;;;;19.95;11.15;;;15.20;99.90;;;;;;5051757;28;20022;-75
2021/06/02 05:25:10;;;;;;;22.35;12.13;;;15.50;99.90;;;;;;5052957;28;20386;-76
2021/06/02 05:28:15;;;;;;;27.77;12.98;;;16.10;99.90;;;;;;5052920;28;20021;-76
2021/06/02 05:31:22;;;;;;;22.08;12.63;;;16.80;99.90;;;;;;5052985;28;20039;-75
2021/06/02 05:34:19;;;;;;;16.60;11.60;;;17.30;99.90;;;;;;5052978;28;20474;-76
2021/06/02 05:40:26;;;;;;;17.83;12.38;;;17.70;99.90;;;;;;5111478;27;20359;-75
2021/06/02 05:43:32;;;;;;;24.10;12.32;;;18.20;99.90;;;;;;5111242;28;20027;-76
2021/06/02 05:46:18;;;;;;;18.25;11.85;;;18.70;99.90;;;;;;5111597;28;20476;-76
2021/06/02 05:49:09;;;;;;;18.05;11.50;;;19.20;99.90;;;;;;5111771;28;20035;-76
2021/06/02 05:51:59;;;;;;;17.10;10.43;;;19.20;99.90;;;;;;5110956;28;20024;-76
2021/06/02 05:55:04;;;;;;;15.68;10.98;;;19.30;99.90;;;;;;5111663;28;20093;-76
2021/06/02 06:01:08;;;;;;;12.93;10.38;;;19.10;99.90;;;;;;5112063;27;20351;-74
2021/06/02 06:04:09;;;;;;;19.70;11.20;;;18.80;99.90;;;;;;5111222;28;20027;-74
2021/06/02 06:07:15;;;;;;;14.77;9.73;;;18.80;99.90;;;;;;5111357;28;20103;-75
2021/06/02 06:10:06;;;;;;;14.25;9.13;;;19.10;99.90;;;;;;5111031;28;20031;-74
2021/06/02 06:13:06;;;;;;;13.45;9.75;;;19.50;99.90;;;;;;5110552;28;20115;-74
2021/06/02 06:16:02;;;;;;;12.70;9.02;;;19.80;99.90;;;;;;5111518;28;20507;-74
2021/06/02 06:19:07;;;;;;;12.82;9.35;;;19.70;99.90;;;;;;5109569;28;20059;-74
2021/06/02 06:24:18;;;;;;;14.95;9.10;;;19.40;99.90;;;;;;5112208;27;20408;-74
2021/06/02 06:27:15;;;;;;;14.15;9.15;;;19.20;99.90;;;;;;5111747;28;20110;-74
2021/06/02 06:30:05;;;;;;;12.48;8.63;;;19.50;99.90;;;;;;5111723;28;20449;-74
2021/06/02 06:32:36;;;;;;;11.70;8.82;;;19.50;99.90;;;;;;5111636;28;20027;-77
2021/06/02 06:35:03;;;;;;;15.30;9.70;;;19.40;99.90;;;;;;5111662;28;20514;-76
2021/06/02 06:37:33;;;;;;;17.50;9.43;;;19.70;99.90;;;;;;5109553;28;20023;-75
2021/06/02 06:40:03;;;;;;;17.42;9.32;;;19.70;99.90;;;;;;5111201;28;20028;-76
2021/06/02 06:42:35;;;;;;;13.02;8.48;;;19.80;99.90;;;;;;5111458;28;20020;-76
2021/06/02 06:45:09;;;;;;;14.45;9.00;;;19.70;99.90;;;;;;5110403;28;20461;-74
2021/06/02 06:47:35;;;;;;;18.00;9.45;;;20.10;99.90;;;;;;5091664;28;20048;-77
2021/06/02 06:50:02;;;;;;;10.82;7.82;;;20.20;99.90;;;;;;5106891;28;20025;-76
2021/06/02 06:52:28;;;;;;;11.00;8.10;;;20.40;99.90;;;;;;5108166;28;20492;-76
2021/06/02 06:54:57;;;;;;;11.98;8.45;;;20.60;99.90;;;;;;5109598;28;20049;-76
2021/06/02 06:57:23;;;;;;;12.20;8.48;;;20.90;99.90;;;;;;5107174;28;20431;-76
2021/06/02 06:59:50;;;;;;;13.73;8.25;;;20.90;99.90;;;;;;5092219;28;20063;-76
2021/06/02 07:02:16;;;;;;;10.65;8.38;;;21.20;99.90;;;;;;5097555;28;20024;-76
2021/06/02 07:04:43;;;;;;;11.77;8.85;;;21.60;99.90;;;;;;5101016;28;20059;-77
2021/06/02 07:07:10;;;;;;;9.38;8.05;;;21.70;99.90;;;;;;5105245;28;20475;-76
2021/06/02 07:09:36;;;;;;;10.32;7.75;;;22.00;99.90;;;;;;5098788;28;20102;-75
2021/06/02 07:12:02;;;;;;;12.50;7.70;;;22.30;99.90;;;;;;5108114;28;20018;-76
2021/06/02 07:14:29;;;;;;;11.13;7.45;;;22.80;99.90;;;;;;5109007;28;20081;-76
2021/06/02 07:16:57;;;;;;;13.15;7.28;;;22.80;99.90;;;;;;5108016;28;20056;-77
2021/06/02 07:19:24;;;;;;;14.07;8.00;;;22.50;99.90;;;;;;5093551;28;20397;-76
2021/06/02 07:21:50;;;;;;;11.95;7.85;;;22.70;99.90;;;;;;5091533;28;20020;-76
2021/06/02 07:24:18;;;;;;;7.97;7.07;;;23.10;99.90;;;;;;5106588;28;20028;-75
2021/06/02 07:26:44;;;;;;;10.23;7.28;;;23.70;99.90;;;;;;5109991;28;20066;-76
2021/06/02 07:29:10;;;;;;;8.13;6.20;;;24.10;99.90;;;;;;5107338;28;20028;-75
2021/06/02 07:31:35;;;;;;;12.10;7.03;;;25.20;99.30;;;;;;5108042;28;20091;-76
2021/06/02 07:34:01;;;;;;;8.63;6.47;;;26.10;96.30;;;;;;5096832;28;20446;-74
2021/06/02 07:36:27;;;;;;;8.35;6.68;;;26.60;95.20;;;;;;5095858;28;20055;-76
2021/06/02 07:38:52;;;;;;;9.15;6.82;;;27.00;91.80;;;;;;5095323;28;20031;-77
2021/06/02 07:41:18;;;;;;;9.88;7.15;;;27.60;91.10;;;;;;5095677;28;20146;-77
2021/06/02 07:43:43;;;;;;;8.35;6.15;;;27.70;89.60;;;;;;5094178;28;20080;-76
2021/06/02 07:46:09;;;;;;;8.10;6.18;;;27.30;88.20;;;;;;5093855;28;20031;-77
2021/06/02 07:48:35;;;;;;;8.02;5.97;;;27.50;86.60;;;;;;5086753;28;20024;-76
2021/06/02 07:51:00;;;;;;;8.57;5.53;;;27.20;85.90;;;;;;5075658;28;20022;-76
2021/06/02 07:53:27;;;;;;;6.13;5.10;;;27.30;83.20;;;;;;5077758;28;20370;-76
2021/06/02 07:55:53;;;;;;;9.93;5.70;;;27.30;84.20;;;;;;5093392;28;20055;-76
2021/06/02 07:58:18;;;;;;;8.23;5.28;;;28.00;81.90;;;;;;5092034;28;20085;-76
2021/06/02 08:00:44;;;;;;;7.68;5.63;;;28.10;78.40;;;;;;5092978;28;20028;-76
2021/06/02 08:03:09;;;;;;;7.60;5.70;;;27.70;76.30;;;;;;5083930;28;20047;-77
2021/06/02 08:05:35;;;;;;;6.45;5.30;;;27.90;76.40;;;;;;5093679;28;20020;-77
2021/06/02 08:08:00;;;;;;;7.18;5.05;;;27.80;79.50;;;;;;5085567;28;20024;-77
2021/06/02 08:10:27;;;;;;;10.10;4.97;;;28.00;75.10;;;;;;5081668;28;20377;-77
2021/06/02 08:12:52;;;;;;;6.03;5.18;;;27.60;73.50;;;;;;5094778;28;20480;-76
2021/06/02 08:15:19;;;;;;;5.80;4.70;;;27.40;74.40;;;;;;5094567;28;20032;-76
2021/06/02 08:17:45;;;;;;;6.18;4.88;;;27.50;73.00;;;;;;5094807;28;20099;-76
2021/06/02 08:20:13;;;;;;;7.18;5.13;;;27.60;72.50;;;;;;5092324;28;20032;-76
2021/06/02 08:22:39;;;;;;;9.77;5.20;;;28.10;70.80;;;;;;5092521;28;20044;-77
2021/06/02 08:25:08;;;;;;;7.38;4.57;;;28.70;70.50;;;;;;5094154;28;20143;-77
2021/06/02 08:27:34;;;;;;;6.95;4.40;;;28.60;67.20;;;;;;5094647;28;20031;-77
2021/06/02 08:29:59;;;;;;;6.85;4.65;;;28.70;68.60;;;;;;5089321;28;20024;-77
2021/06/02 08:32:25;;;;;;;7.78;4.85;;;28.40;68.50;;;;;;5094299;28;20024;-76
2021/06/02 08:34:52;;;;;;;6.82;4.30;;;28.30;67.30;;;;;;5091722;28;20146;-76
2021/06/02 08:37:17;;;;;;;6.22;4.38;;;28.40;67.20;;;;;;5093668;28;20465;-76
2021/06/02 08:39:43;;;;;;;4.20;3.80;;;28.70;65.60;;;;;;5077787;28;20029;-76
2021/06/02 08:42:09;;;;;;;5.82;3.90;;;28.70;61.60;;;;;;5086518;28;20122;-76
2021/06/02 08:44:36;;;;;;;9.98;4.35;;;28.40;68.00;;;;;;5076277;28;20070;-74
2021/06/02 08:47:03;;;;;;;8.57;4.15;;;28.30;61.40;;;;;;5091147;28;20445;-76
2021/06/02 08:49:29;;;;;;;6.05;3.60;;;28.10;65.00;;;;;;5093558;28;20031;-75
2021/06/02 08:51:55;;;;;;;4.80;3.40;;;28.20;59.70;;;;;;5092882;28;20028;-75
2021/06/02 08:54:23;;;;;;;4.13;2.72;;;28.60;54.50;;;;;;5094480;28;20062;-75
2021/06/02 08:56:48;;;;;;;6.53;3.20;;;29.10;52.00;;;;;;5093187;28;20020;-75
2021/06/02 08:59:16;;;;;;;6.72;3.60;;;28.90;51.80;;;;;;5085687;28;20040;-76
2021/06/02 09:01:41;;;;;;;6.00;3.50;;;28.50;54.80;;;;;;5092630;28;20027;-75
2021/06/02 09:04:09;;;;;;;6.07;3.63;;;28.60;55.30;;;;;;5084413;28;20028;-74
2021/06/02 09:06:37;;;;;;;9.05;3.58;;;28.50;56.30;;;;;;5086808;28;20488;-75
2021/06/02 09:09:04;;;;;;;8.57;3.70;;;28.50;54.40;;;;;;5073865;28;20052;-75
2021/06/02 09:11:36;;;;;;;3.85;3.45;;;28.80;58.10;;;;;;5078128;28;20044;-75
2021/06/02 09:14:01;;;;;;;4.57;3.15;;;29.30;56.50;;;;;;5093913;28;20020;-75
2021/06/02 09:16:30;;;;;;;7.03;3.55;;;29.40;52.00;;;;;;5092273;28;20047;-75
2021/06/02 09:19:07;;;;;;;3.58;3.05;;;29.30;51.10;;;;;;5094129;28;20026;-75
2021/06/02 09:21:38;;;;;;;5.45;3.08;;;29.80;48.70;;;;;;5091966;28;20039;-75
2021/06/02 09:24:05;;;;;;;4.57;3.17;;;29.90;48.10;;;;;;5075364;28;20055;-75
2021/06/02 09:26:31;;;;;;;5.10;2.70;;;29.90;49.10;;;;;;5087573;28;20025;-75
2021/06/02 09:29:02;;;;;;;6.70;3.42;;;30.60;46.70;;;;;;5055300;28;20016;-75
2021/06/02 09:31:32;;;;;;;8.23;3.10;;;31.20;47.20;;;;;;5074317;28;20024;-74
2021/06/02 09:34:02;;;;;;;4.35;3.03;;;30.80;45.60;;;;;;5073471;28;20024;-75
2021/06/02 09:36:31;;;;;;;3.60;3.10;;;30.80;44.00;;;;;;5073709;28;20358;-75
2021/06/02 09:39:00;;;;;;;2.72;2.53;;;31.20;46.70;;;;;;5073481;28;20048;-75
2021/06/02 09:41:27;;;;;;;4.53;3.25;;;31.70;42.00;;;;;;5077419;28;20038;-75
2021/06/02 09:43:54;;;;;;;5.03;2.97;;;32.00;43.60;;;;;;5086232;28;20042;-74
2021/06/02 09:46:19;;;;;;;4.38;2.78;;;31.90;41.40;;;;;;5087972;28;20111;-75
2021/06/02 09:48:58;;;;;;;3.47;2.78;;;31.30;42.80;;;;;;5091070;28;20436;-75
2021/06/02 09:51:33;;;;;;;2.75;2.50;;;30.70;42.90;;;;;;5080710;28;20028;-75
2021/06/02 09:54:00;;;;;;;4.38;2.88;;;31.90;44.40;;;;;;5088582;28;20111;-75
2021/06/02 09:56:46;;;;;;;9.10;2.83;;;31.90;43.00;;;;;;5091070;28;20024;-75
2021/06/02 09:59:13;;;;;;;6.57;2.83;;;33.20;42.30;;;;;;5091674;28;20024;-75
2021/06/02 10:01:57;;;;;;;3.83;2.60;;;33.70;41.30;;;;;;5092206;28;20024;-75
2021/06/02 10:04:39;;;;;;;5.70;2.90;;;34.30;41.40;;;;;;5090080;28;20397;-75
2021/06/02 10:07:17;;;;;;;4.95;2.85;;;33.60;39.60;;;;;;5092869;28;20159;-75
2021/06/02 10:09:43;;;;;;;5.93;2.65;;;33.00;37.90;;;;;;5092740;28;20051;-75
2021/06/02 10:12:10;;;;;;;4.28;2.65;;;32.40;39.80;;;;;;5092589;28;20031;-75
2021/06/02 10:14:39;;;;;;;6.38;2.50;;;32.90;37.90;;;;;;5083925;28;20052;-75
2021/06/02 10:17:24;;;;;;;5.25;2.67;;;33.30;36.90;;;;;;5073141;28;20020;-75
2021/06/02 10:19:50;;;;;;;4.20;2.65;;;33.00;35.10;;;;;;5083345;28;20024;-75
2021/06/02 10:22:28;;;;;;;2.58;2.38;;;33.30;37.80;;;;;;5093213;28;20096;-75
2021/06/02 10:24:57;;;;;;;2.78;2.58;;;33.20;35.10;;;;;;5091332;28;20016;-75
2021/06/02 10:27:23;;;;;;;3.22;2.40;;;33.40;34.30;;;;;;5092718;28;20043;-75
2021/06/02 10:29:50;;;;;;;3.83;2.50;;;33.20;38.10;;;;;;5092672;28;20044;-75
2021/06/02 10:32:17;;;;;;;3.05;2.28;;;33.60;36.40;;;;;;5093116;28;20024;-75
2021/06/02 10:34:43;;;;;;;4.63;2.90;;;33.40;38.30;;;;;;5085002;28;20029;-75
2021/06/02 10:37:13;;;;;;;5.35;2.75;;;33.30;39.10;;;;;;5074657;28;20032;-75
2021/06/02 10:39:39;;;;;;;3.30;2.53;;;33.20;41.70;;;;;;5081496;28;20102;-75
2021/06/02 10:42:14;;;;;;;5.20;2.72;;;32.30;37.90;;;;;;5072905;28;20390;-74
2021/06/02 10:44:45;;;;;;;3.25;2.63;;;31.40;41.60;;;;;;5067740;28;20032;-75
2021/06/02 10:47:11;;;;;;;3.80;2.70;;;31.20;41.40;;;;;;5072550;28;20016;-74
2021/06/02 10:49:37;;;;;;;3.85;2.88;;;31.20;42.40;;;;;;5080830;28;20031;-74
2021/06/02 10:52:05;;;;;;;2.92;2.72;;;30.00;41.90;;;;;;5072858;28;20029;-74
2021/06/02 10:54:37;;;;;;;4.25;2.97;;;30.20;43.10;;;;;;5081349;28;20021;-74
2021/06/02 10:57:07;;;;;;;3.83;2.95;;;30.30;40.60;;;;;;5072157;28;20024;-74
2021/06/02 10:59:37;;;;;;;5.95;2.92;;;29.60;39.20;;;;;;5090363;28;20035;-74
2021/06/02 11:02:05;;;;;;;6.07;3.05;;;29.60;42.00;;;;;;5092882;28;20027;-74
2021/06/02 11:04:33;;;;;;;5.18;3.05;;;29.60;44.20;;;;;;5089754;28;20028;-74
2021/06/02 11:07:14;;;;;;;3.33;2.97;;;29.50;40.80;;;;;;5089510;28;20085;-74
2021/06/02 11:09:58;;;;;;;4.00;2.78;;;29.30;41.90;;;;;;5093955;28;20484;-74
2021/06/02 11:12:25;;;;;;;5.05;3.15;;;29.20;44.50;;;;;;5094687;28;20028;-74
2021/06/02 11:14:52;;;;;;;3.80;2.80;;;29.00;41.60;;;;;;5096057;28;20028;-74
2021/06/02 11:17:19;;;;;;;5.53;3.13;;;29.10;42.10;;;;;;5094585;28;20024;-74
2021/06/02 11:19:50;;;;;;;5.28;3.00;;;29.00;42.50;;;;;;5094034;28;20023;-74
2021/06/02 11:22:19;;;;;;;3.40;3.10;;;28.70;41.80;;;;;;5080501;28;20374;-74
2021/06/02 11:24:46;;;;;;;3.50;3.20;;;28.60;42.80;;;;;;5094244;28;20102;-74
2021/06/02 11:29:54;;;;;;;4.05;3.38;;;29.00;42.90;;;;;;5107852;27;20474;-74
2021/06/02 11:32:29;;;;;;;4.45;3.63;;;29.70;41.80;;;;;;5089644;28;20023;-74
2021/06/02 11:34:58;;;;;;;2.97;2.67;;;30.00;41.40;;;;;;5089025;28;20461;-74
2021/06/02 11:37:26;;;;;;;6.40;2.80;;;29.80;39.60;;;;;;5089061;28;20035;-74
2021/06/02 11:39:54;;;;;;;5.38;3.25;;;29.70;40.70;;;;;;5087240;28;20099;-74
2021/06/02 11:42:39;;;;;;;6.13;3.30;;;29.50;40.20;;;;;;5088299;28;20028;-74
2021/06/02 11:45:09;;;;;;;4.97;3.55;;;29.70;39.90;;;;;;5089595;28;20028;-74
2021/06/02 11:47:36;;;;;;;4.10;3.45;;;29.60;42.90;;;;;;5090370;28;20363;-73
2021/06/02 11:50:05;;;;;;;5.45;3.05;;;29.20;44.20;;;;;;5090058;28;20016;-73
2021/06/02 11:52:31;;;;;;;6.05;2.83;;;29.00;46.30;;;;;;5090345;28;20113;-73
2021/06/02 11:54:59;;;;;;;5.03;3.22;;;29.00;45.50;;;;;;5088953;28;20520;-73
2021/06/02 11:57:29;;;;;;;4.18;2.95;;;29.20;45.30;;;;;;5089394;28;20085;-73
2021/06/02 11:59:56;;;;;;;6.15;3.50;;;29.20;45.50;;;;;;5089006;28;20077;-73
2021/06/02 12:02:22;;;;;;;3.20;2.92;;;28.90;43.00;;;;;;5088400;28;20023;-73
2021/06/02 12:04:48;;;;;;;3.65;2.95;;;28.60;46.00;;;;;;5090029;28;20024;-73
2021/06/02 12:07:26;;;;;;;3.42;3.13;;;28.90;43.00;;;;;;5088621;28;20366;-73
2021/06/02 12:09:53;;;;;;;6.43;3.20;;;29.40;43.10;;;;;;5089836;28;20028;-73
2021/06/02 12:12:20;;;;;;;3.58;2.88;;;29.50;39.50;;;;;;5089484;28;20028;-73
2021/06/02 12:15:00;;;;;;;27.60;4.72;;;29.40;39.10;;;;;;5087743;28;20048;-73
2021/06/02 12:17:27;;;;;;;9.27;3.72;;;29.40;40.00;;;;;;5089766;28;20028;-73
2021/06/02 12:19:53;;;;;;;4.25;3.33;;;29.10;39.30;;;;;;5071116;28;20038;-73
2021/06/02 12:22:20;;;;;;;11.05;3.60;;;29.40;41.50;;;;;;5089126;28;20032;-73
2021/06/02 12:25:04;;;;;;;17.10;3.40;;;29.30;41.30;;;;;;5089197;28;20047;-73
2021/06/02 12:27:37;;;;;;;5.63;3.35;;;29.20;39.10;;;;;;5089089;28;20020;-73
2021/06/02 12:30:05;;;;;;;3.58;3.13;;;29.40;40.90;;;;;;5089409;28;20043;-75
2021/06/02 12:32:56;;;;;;;9.93;3.67;;;29.40;40.00;;;;;;5087793;28;20013;-73
2021/06/02 12:35:40;;;;;;;3.47;2.95;;;29.20;41.50;;;;;;5089182;28;20421;-73
2021/06/02 12:38:27;;;;;;;;;;;29.10;39.80;;;;;;5089645;28;20402;-74
2021/06/02 12:40:55;;;;;;;5.45;3.13;;;29.10;39.80;;;;;;5077089;28;19916;-73
2021/06/02 12:43:30;;;;;;;3.30;3.10;;;29.10;40.50;;;;;;5074851;28;20059;-74
2021/06/02 12:46:13;;;;;;;4.80;3.28;;;29.20;40.70;;;;;;5075521;28;20024;-74
2021/06/02 12:48:39;;;;;;;5.50;3.15;;;29.30;40.10;;;;;;5074400;28;20101;-74
2021/06/02 12:51:07;;;;;;;8.00;3.30;;;29.30;42.40;;;;;;5075320;28;20054;-74
2021/06/02 12:56:15;;;;;;;3.80;3.20;;;29.70;41.90;;;;;;5070050;28;20411;-73
2021/06/02 12:58:41;;;;;;;4.72;3.60;;;29.40;41.20;;;;;;5065458;28;20379;-74
2021/06/02 13:01:11;;;;;;;3.28;2.90;;;29.00;40.70;;;;;;5050064;28;20047;-74
2021/06/02 13:03:43;;;;;;;4.38;3.40;;;29.10;43.80;;;;;;5049785;28;20021;-74
2021/06/02 13:06:13;;;;;;;3.88;3.20;;;29.40;41.90;;;;;;5049816;28;20120;-74
2021/06/02 13:08:40;;;;;;;5.72;2.72;;;29.20;39.90;;;;;;5049173;28;20036;-74
2021/06/02 13:11:07;;;;;;;35.83;5.20;;;29.00;39.80;;;;;;5048821;28;20033;-74
2021/06/02 13:13:32;;;;;;;6.18;2.90;;;29.00;40.00;;;;;;5049313;28;20104;-74
2021/06/02 13:15:58;;;;;;;5.75;3.00;;;28.90;39.40;;;;;;5048142;28;20120;-73
2021/06/02 13:18:28;;;;;;;3.35;3.05;;;29.00;40.20;;;;;;5049715;28;20017;-74
2021/06/02 13:20:56;;;;;;;7.28;3.47;;;29.10;40.10;;;;;;5049629;28;20176;-74
2021/06/02 13:23:26;;;;;;;3.58;3.08;;;29.10;42.10;;;;;;5049818;28;20078;-73
2021/06/02 13:26:13;;;;;;;3.70;3.25;;;29.20;41.10;;;;;;5049444;28;20025;-74
2021/06/02 13:28:53;;;;;;;3.88;2.90;;;29.20;40.00;;;;;;5049470;28;20112;-74
2021/06/02 13:31:21;;;;;;;3.30;3.00;;;29.20;41.50;;;;;;5049901;28;20086;-74
2021/06/02 13:33:48;;;;;;;6.35;3.03;;;29.00;40.30;;;;;;5049222;28;20029;-74
2021/06/02 13:36:22;;;;;;;5.40;3.50;;;28.90;40.20;;;;;;5049784;28;20040;-74
2021/06/02 13:38:48;;;;;;;5.32;2.97;;;29.10;40.10;;;;;;5049050;28;20022;-74
2021/06/02 13:41:23;;;;;;;3.33;3.03;;;28.90;38.80;;;;;;5049126;28;20111;-74